Flight Track Log - Related Links

Times and Time Zones

All times are in EDT time to prevent confusion due to time zone crossing. See the TCF3480 flight status page for this flight to view local times or setup timezone preferences in your user account.

Time Position Orientation Groundspeed Altitude Reporting Facility
EDT Latitude Longitude Course Direction KTS MPH feet Rate Location/Type
Wed 12:48:26 AM 38.9333 -77.5500 303° West 182 209 3,500  Level Potomac TRACON
Wed 12:49:59 AM 38.9036 -77.6856 254° West 239 275 8,500 3,098 Climbing Washington Center
Wed 12:50:59 AM 38.9122 -77.7844 276° West 245 282 11,400 2,678 Climbing Washington Center
Wed 12:51:00 AM 38.8833 -77.9666 293° West  Level FlightAware Approximate
Wed 12:52:00 AM 38.9092 -78.0697 288° West  Level FlightAware Approximate
Wed 12:52:00 AM 38.9231 -77.8703 279° West 264 304 13,900  Level Washington Center
Wed 12:52:57 AM 38.9336 -77.9719 278° West 282 325 16,300 2,450 Climbing Washington Center
Wed 12:53:00 AM 38.9361 -78.1722 303° West  Level FlightAware Approximate
Wed 12:54:00 AM 38.9442 -78.0739 278° West 287 330 18,800  Level Washington Center
Wed 12:54:58 AM 38.9567 -78.1756 279° West 293 337 21,800 2,644 Climbing Washington Center
Wed 12:55:58 AM 38.9628 -78.2719 275° West 287 330 24,000 1,109 Climbing Washington Center
Wed 12:56:57 AM 38.9647 -78.3681 272° West 282 325 24,000  Level Washington Center
Wed 12:57:57 AM 38.9686 -78.4697 273° West 277 319 24,000  Level Washington Center
Wed 12:58:57 AM 38.9725 -78.5661 273° West 277 319 24,000  Level Washington Center
Wed 12:59:57 AM 38.9742 -78.6650 271° West 272 313 24,000  Level Washington Center
Wed 01:00:58 AM 38.9778 -78.7664 273° West 272 313 24,000  Level Washington Center
Wed 01:02:00 AM 38.9814 -78.8628 273° West 272 313 24,000  Level Washington Center
Wed 01:02:59 AM 38.9831 -78.9592 271° West 272 313 24,000  Level Washington Center
Wed 01:03:57 AM 38.9844 -79.0578 271° West 272 313 24,000  Level Washington Center
Wed 01:04:58 AM 38.9878 -79.1594 272° West 272 313 24,000  Level Washington Center
Wed 01:05:57 AM 38.9889 -79.2583 271° West 272 313 24,000  Level Washington Center
Wed 01:06:57 AM 38.9919 -79.3575 272° West 277 319 24,000  Level Washington Center
Wed 01:07:59 AM 38.9950 -79.4617 272° West 277 319 24,000  Level Washington Center
Wed 01:08:57 AM 38.9958 -79.5606 271° West 282 325 24,000  Level Washington Center
Wed 01:09:57 AM 39.0003 -79.6783 273° West 290 334 24,000  Level Washington Center
Wed 01:10:57 AM 39.0011 -79.7772 271° West 290 334 24,000  Level Washington Center
Wed 01:11:57 AM 39.0017 -79.8761 270° West 285 328 24,000  Level Washington Center
Wed 01:12:57 AM 39.0047 -79.9672 272° West 285 328 24,000  Level Washington Center
Wed 01:13:57 AM 39.0053 -80.0661 270° West 285 328 24,000  Level Washington Center
Wed 01:14:49 AM 39.0047 -80.1442 269° West 281 323 24,000  Level Indianapolis Center
Wed 01:15:49 AM 39.0069 -80.2439 272° West 280 322 24,000  Level Indianapolis Center
Wed 01:16:50 AM 39.0081 -80.3450 271° West 282 325 24,000  Level Indianapolis Center
Wed 01:17:50 AM 39.0167 -80.4425 277° West 276 318 24,000  Level Indianapolis Center
Wed 01:18:50 AM 39.0353 -80.5378 284° West 274 315 24,000  Level Indianapolis Center
Wed 01:19:51 AM 39.0508 -80.6353 282° West 277 319 24,000  Level Indianapolis Center
Wed 01:20:51 AM 39.0678 -80.7303 283° West 275 316 24,000  Level Indianapolis Center
Wed 01:21:51 AM 39.0842 -80.8256 283° West 273 314 24,000  Level Indianapolis Center
Wed 01:22:52 AM 39.1008 -80.9231 282° West 279 321 24,000  Level Indianapolis Center
Wed 01:23:52 AM 39.1178 -81.0197 283° West 278 320 24,000  Level Indianapolis Center
Wed 01:24:52 AM 39.1367 -81.1158 284° West 279 321 24,000 -298 Level Indianapolis Center
Wed 01:25:53 AM 39.1764 -81.2206 296° West 271 312 23,400 -694 Descending Indianapolis Center
Wed 01:26:53 AM 39.2061 -81.2994 296° West 250 288 22,600 -850 Descending Indianapolis Center
Wed 01:27:53 AM 39.2369 -81.3806 296° West 252 290 21,700 -893 Descending Indianapolis Center
Wed 01:28:54 AM 39.2667 -81.4617 295° West 251 289 20,800 -893 Descending Indianapolis Center
Wed 01:29:54 AM 39.2964 -81.5433 295° West 252 290 19,900 -850 Descending Indianapolis Center
Wed 01:30:54 AM 39.3261 -81.6233 296° West 250 288 19,100 -843 Descending Indianapolis Center
Wed 01:31:55 AM 39.3547 -81.6997 296° West 239 275 18,200 -843 Descending Indianapolis Center
Wed 01:32:55 AM 39.3822 -81.7769 295° West 236 272 17,400 -800 Descending Indianapolis Center
Wed 01:33:55 AM 39.4108 -81.8542 296° West 237 273 16,600 -843 Descending Indianapolis Center
Wed 01:34:56 AM 39.4386 -81.9306 295° West 235 270 15,700 -843 Descending Indianapolis Center
Wed 01:35:56 AM 39.4661 -82.0069 295° West 235 270 14,900 -923 Descending Indianapolis Center
Wed 01:36:27 AM 39.4819 -82.0522 294° West 232 267 14,300 -800 Descending Indianapolis Center
Wed 01:36:56 AM 39.4922 -82.0819 294° West 230 265 14,100 -764 Descending Indianapolis Center
Wed 01:37:22 AM 39.5056 -82.1139 298° West 227 261 13,600 -1,082 Descending Indianapolis Center
Wed 01:37:57 AM 39.5189 -82.1539 293° West 227 261 13,000 -1,377 Descending Indianapolis Center
Wed 01:38:23 AM 39.5383 -82.1903 305° West 225 259 12,200 -1,200 Descending Indianapolis Center
Wed 01:38:57 AM 39.5633 -82.2119 326° Northwest 224 258 11,800 -800 Descending Indianapolis Center
Wed 01:39:23 AM 39.5858 -82.2383 318° Northwest 222 255 11,400 -800 Descending Indianapolis Center
Wed 01:39:57 AM 39.6050 -82.2661 312° West 212 244 11,000 -885 Descending Indianapolis Center
Wed 01:40:24 AM 39.6261 -82.2939 315° West 210 242 10,500 -1,000 Descending Indianapolis Center
Wed 01:40:57 AM 39.6467 -82.3200 316° Northwest 210 242 10,000 -545 Descending Indianapolis Center
Wed 01:41:30 AM 39.6706 -82.3528 313° West 211 243 9,900 -393 Descending Indianapolis Center
Wed 01:41:58 AM 39.6897 -82.3728 321° Northwest 211 243 9,600 -787 Descending Indianapolis Center
Wed 01:42:31 AM 39.7094 -82.4000 313° West 199 229 9,100 -1,200 Descending Indianapolis Center
Wed 01:42:58 AM 39.7261 -82.4214 315° West 190 219 8,400 -1,343 Descending Indianapolis Center
Wed 01:43:38 AM 39.7539 -82.4564 316° Northwest 188 216 7,600 -1,100 Descending Indianapolis Center
Wed 01:43:58 AM 39.7647 -82.4714 313° West 192 221 7,300 -1,100 Descending Indianapolis Center
Wed 01:44:38 AM 39.7925 -82.5067 316° Northwest 194 223 6,500 -1,180 Descending Indianapolis Center
Wed 01:44:59 AM 39.8044 -82.5211 317° Northwest 196 226 6,100 -1,082 Descending Indianapolis Center
Wed 01:45:39 AM 39.8314 -82.5542 317° Northwest 195 224 5,400 -1,000 Descending Indianapolis Center
Wed 01:45:59 AM 39.8417 -82.5708 309° West 192 221 5,100 -984 Descending Indianapolis Center
Wed 01:46:40 AM 39.8678 -82.6042 316° Northwest 190 219 4,400 -1,100 Descending Indianapolis Center
Wed 01:46:59 AM 39.8789 -82.6200 312° West 190 219 4,000 -700 Descending Indianapolis Center
Wed 01:47:40 AM 39.9025 -82.6517 314° West 183 211 3,700 -600 Descending Indianapolis Center
Wed 01:47:59 AM 39.9150 -82.6650 321° Northwest 183 211 3,400 -982 Descending Indianapolis Center
Wed 01:48:35 AM 39.9333 -82.6903 313° West 172 198 2,800 -984 Descending Indianapolis Center
Wed 01:49:00 AM 39.9489 -82.7092 317° Northwest 177 204 2,400 -300 Descending Indianapolis Center
Wed 01:49:35 AM 39.9681 -82.7350 314° West 169 194 2,500  Climbing Indianapolis Center
Wed 01:50:00 AM 39.9831 -82.7536 316° Northwest 174 200 2,400 -295 Descending Indianapolis Center
Wed 01:50:36 AM 39.9947 -82.7758 304° West 116 133 2,200 -400 Descending Indianapolis Center
Wed 01:51:00 AM 39.9956 -82.7886 275° West 134 154 2,000 -393 Descending Indianapolis Center
Wed 01:51:37 AM 39.9967 -82.8117 274° West 84 97 1,800 -393 Descending Indianapolis Center
Wed 01:52:01 AM 39.9983 -82.8233 281° West 106 122 1,600 -500 Descending Indianapolis Center

Login

Don't have an account? Register now (free) for customized features, flight alerts, and more!